Time;durP1;ratioP1;P1;durP2;ratioP2;P2;SDS_P1;SDS_P2;PMS_P1;PMS_P2;Temp;Humidity;BMP_temperature;BMP_pressure;BME280_temperature;BME280_humidity;BME280_pressure;Samples;Min_cycle;Max_cycle;Signal;HPM_P1;HPM_P2
2022/01/23 00:02:06;;;;;;;31.15;19.20;;;;;;;;;;5038758;28;92345;-72
2022/01/23 00:04:33;;;;;;;33.10;20.35;;;;;;;;;;5025680;28;93338;-72
2022/01/23 00:07:03;;;;;;;34.10;20.42;;;;;;;;;;5036849;28;94723;-73
2022/01/23 00:09:30;;;;;;;33.97;19.35;;;;;;;;;;5038416;28;95869;-74
2022/01/23 00:11:59;;;;;;;32.72;20.33;;;;;;;;;;5037772;28;93764;-71
2022/01/23 00:17:18;;;;;;;34.10;20.42;;;;;;;;;;5020418;28;94042;-72
2022/01/23 00:19:45;;;;;;;33.60;20.00;;;;;;;;;;5038680;28;93084;-73
2022/01/23 00:22:13;;;;;;;36.17;20.65;;;;;;;;;;5037915;28;92296;-73
2022/01/23 00:30:30;;;;;;;25.80;18.30;;;;;;;;;;5038397;28;93342;-73
2022/01/23 00:33:01;;;;;;;26.27;17.85;;;;;;;;;;5017998;28;98535;-71
2022/01/23 00:35:28;;;;;;;26.63;18.33;;;;;;;;;;5020389;28;93097;-73
2022/01/23 00:37:54;;;;;;;28.15;18.45;;;;;;;;;;5038158;28;93482;-72
2022/01/23 00:40:22;;;;;;;30.30;18.67;;;;;;;;;;5019782;28;95963;-72
2022/01/23 00:42:49;;;;;;;34.13;18.42;;;;;;;;;;5038073;28;92307;-71
2022/01/23 00:47:42;;;;;;;27.83;16.65;;;;;;;;;;5037846;28;93651;-72
2022/01/23 00:50:08;;;;;;;20.55;17.05;;;;;;;;;;5041087;28;91500;-72
2022/01/23 00:52:35;;;;;;;26.40;16.55;;;;;;;;;;5019717;28;96752;-73
2022/01/23 00:55:04;;;;;;;27.92;17.88;;;;;;;;;;5019748;28;92526;-71
2022/01/23 00:57:33;;;;;;;24.75;17.70;;;;;;;;;;5018173;28;94605;-72
2022/01/23 01:00:00;;;;;;;23.70;16.13;;;;;;;;;;5019297;28;95375;-72
2022/01/23 01:02:27;;;;;;;27.48;17.65;;;;;;;;;;5037732;28;92549;-73
2022/01/23 01:04:53;;;;;;;28.00;17.58;;;;;;;;;;5037722;28;92766;-71
2022/01/23 01:07:20;;;;;;;22.67;16.52;;;;;;;;;;5019619;28;95621;-71
2022/01/23 01:09:50;;;;;;;27.73;17.17;;;;;;;;;;5019457;28;92466;-73
2022/01/23 01:12:39;;;;;;;27.38;17.10;;;;;;;;;;5040006;28;93582;-72
2022/01/23 01:31:27;;;;;;;32.75;16.27;;;;;;;;;;5019106;28;92374;-71
2022/01/23 01:36:26;;;;;;;27.70;15.55;;;;;;;;;;5018892;28;94623;-73
2022/01/23 01:38:58;;;;;;;24.88;15.82;;;;;;;;;;5019125;28;95505;-71
2022/01/23 01:41:25;;;;;;;16.45;13.82;;;;;;;;;;5037272;28;92895;-74
2022/01/23 01:43:53;;;;;;;22.38;14.73;;;;;;;;;;5002106;28;93021;-72
2022/01/23 01:46:32;;;;;;;24.10;15.20;;;;;;;;;;5019062;28;95842;-72
2022/01/23 01:48:59;;;;;;;26.98;15.25;;;;;;;;;;5016213;28;97751;-72
2022/01/23 01:51:31;;;;;;;23.25;14.98;;;;;;;;;;5002268;28;92409;-71
2022/01/23 01:54:15;;;;;;;23.88;15.27;;;;;;;;;;5036426;28;93482;-72
2022/01/23 01:57:04;;;;;;;26.13;14.70;;;;;;;;;;5021975;28;95122;-72
2022/01/23 02:10:49;;;;;;;21.15;13.55;;;;;;;;;;5018126;28;96217;-73
2022/01/23 02:13:19;;;;;;;25.75;15.57;;;;;;;;;;5018619;28;92473;-75
2022/01/23 02:22:32;;;;;;;28.42;15.55;;;;;;;;;;5021215;28;92867;-73
2022/01/23 02:52:15;;;;;;;30.38;19.25;;;;;;;;;;5018181;28;95105;-73
2022/01/23 02:57:09;;;;;;;32.40;20.05;;;;;;;;;;5001485;28;92436;-74
2022/01/23 02:59:38;;;;;;;27.40;18.40;;;;;;;;;;5017872;28;95637;-72
2022/01/23 03:02:33;;;;;;;30.17;19.90;;;;;;;;;;5035762;28;93625;-72
2022/01/23 03:08:03;;;;;;;26.38;17.80;;;;;;;;;;5017818;28;96297;-71
2022/01/23 03:10:37;;;;;;;25.92;18.65;;;;;;;;;;5019047;28;97958;-72
2022/01/23 03:26:23;;;;;;;24.00;16.50;;;;;;;;;;5035717;28;92321;-70
2022/01/23 03:31:25;;;;;;;19.05;14.85;;;;;;;;;;5017636;28;95904;-74
2022/01/23 03:33:52;;;;;;;26.58;17.27;;;;;;;;;;5021260;28;92324;-72
2022/01/23 03:36:19;;;;;;;22.13;16.67;;;;;;;;;;5036980;28;95054;-73
2022/01/23 03:38:46;;;;;;;25.67;16.83;;;;;;;;;;5038984;28;92281;-72
2022/01/23 03:41:14;;;;;;;24.15;15.88;;;;;;;;;;5038679;28;93519;-73
2022/01/23 03:43:41;;;;;;;23.35;16.08;;;;;;;;;;5038628;28;93075;-72
2022/01/23 03:51:42;;;;;;;22.63;16.42;;;;;;;;;;5017433;28;95327;-73
2022/01/23 03:54:08;;;;;;;21.40;14.95;;;;;;;;;;5020832;28;93012;-72
2022/01/23 03:56:34;;;;;;;24.13;16.95;;;;;;;;;;5017248;28;96350;-73
2022/01/23 03:59:01;;;;;;;25.50;15.77;;;;;;;;;;5017239;28;93428;-74
2022/01/23 04:01:28;;;;;;;23.98;16.20;;;;;;;;;;5015327;28;95184;-70
2022/01/23 04:04:00;;;;;;;20.73;15.60;;;;;;;;;;5017100;28;95457;-73
2022/01/23 04:06:26;;;;;;;29.25;16.92;;;;;;;;;;5017398;28;92680;-72
2022/01/23 04:08:53;;;;;;;23.85;17.25;;;;;;;;;;5017247;28;96186;-73
2022/01/23 04:11:19;;;;;;;22.67;16.73;;;;;;;;;;5018116;28;93545;-73
2022/01/23 04:13:52;;;;;;;28.90;17.30;;;;;;;;;;5016879;28;94112;-73
2022/01/23 04:17:00;;;;;;;25.20;17.27;;;;;;;;;;5021378;28;93280;-74
2022/01/23 04:19:28;;;;;;;21.58;15.70;;;;;;;;;;5015215;28;93081;-72
2022/01/23 04:33:18;;;;;;;17.27;13.43;;;;;;;;;;5016860;28;95094;-74
2022/01/23 05:00:36;;;;;;;15.25;12.02;;;;;;;;;;5016731;28;95317;-71
2022/01/23 05:06:09;;;;;;;14.57;11.40;;;;;;;;;;5019728;28;92292;-72
2022/01/23 05:08:51;;;;;;;24.77;12.55;;;;;;;;;;5016141;28;96487;-72
2022/01/23 05:11:31;;;;;;;13.90;12.02;;;;;;;;;;5016134;28;92827;-73
2022/01/23 05:14:01;;;;;;;16.23;12.18;;;;;;;;;;5016557;28;96071;-72
2022/01/23 05:16:30;;;;;;;17.20;12.02;;;;;;;;;;5015662;28;95608;-73
2022/01/23 05:18:58;;;;;;;15.25;12.55;;;;;;;;;;5017506;28;92128;-73
2022/01/23 05:24:09;;;;;;;15.85;12.45;;;;;;;;;;5015784;28;93917;-73
2022/01/23 05:26:43;;;;;;;15.18;12.63;;;;;;;;;;5015972;28;92982;-72
2022/01/23 05:29:11;;;;;;;15.65;12.95;;;;;;;;;;5019571;28;94324;-72
2022/01/23 05:31:38;;;;;;;19.85;13.75;;;;;;;;;;5016383;28;92448;-73
2022/01/23 05:34:04;;;;;;;22.92;16.13;;;;;;;;;;5015722;28;95785;-74
2022/01/23 05:36:31;;;;;;;21.23;15.60;;;;;;;;;;5015890;28;95656;-73
2022/01/23 05:38:58;;;;;;;17.88;14.88;;;;;;;;;;5016379;28;91629;-72
2022/01/23 05:41:25;;;;;;;21.00;14.57;;;;;;;;;;5016844;28;92527;-73
2022/01/23 05:43:52;;;;;;;19.80;14.63;;;;;;;;;;5015340;28;95176;-73
2022/01/23 05:46:18;;;;;;;18.48;13.93;;;;;;;;;;5013868;28;94833;-71
2022/01/23 05:48:57;;;;;;;18.75;13.82;;;;;;;;;;5018299;28;98459;-72
2022/01/23 05:52:03;;;;;;;22.73;15.77;;;;;;;;;;4954784;28;92421;-74
2022/01/23 05:54:57;;;;;;;21.88;14.73;;;;;;;;;;4939005;28;96008;-73
2022/01/23 05:57:41;;;;;;;20.15;14.07;;;;;;;;;;5002550;28;92648;-73
2022/01/23 06:00:29;;;;;;;22.17;15.20;;;;;;;;;;5015251;28;93215;-72
2022/01/23 06:03:01;;;;;;;21.80;16.25;;;;;;;;;;5015263;28;95243;-72
2022/01/23 06:05:36;;;;;;;23.38;16.45;;;;;;;;;;5015991;28;94989;-72
2022/01/23 06:08:07;;;;;;;25.80;16.70;;;;;;;;;;5015427;28;92923;-72
2022/01/23 06:10:48;;;;;;;24.35;18.40;;;;;;;;;;5015333;28;95669;-73
2022/01/23 06:13:14;;;;;;;25.42;16.25;;;;;;;;;;5016692;28;97725;-73
2022/01/23 06:15:41;;;;;;;22.85;16.10;;;;;;;;;;5016342;28;95919;-72
2022/01/23 06:18:07;;;;;;;23.80;16.67;;;;;;;;;;5015097;28;94548;-73
2022/01/23 06:20:52;;;;;;;24.33;16.23;;;;;;;;;;5015897;28;92242;-72
2022/01/23 06:23:33;;;;;;;24.48;17.13;;;;;;;;;;5013637;28;93306;-73
2022/01/23 06:26:10;;;;;;;21.92;16.48;;;;;;;;;;5016110;28;94749;-72
2022/01/23 06:28:52;;;;;;;24.00;16.05;;;;;;;;;;5015078;28;92371;-72
2022/01/23 06:31:18;;;;;;;24.60;16.88;;;;;;;;;;5015670;28;95418;-72
2022/01/23 06:33:45;;;;;;;27.83;16.95;;;;;;;;;;5014548;28;96599;-72
2022/01/23 06:36:11;;;;;;;25.55;17.17;;;;;;;;;;5017901;28;92827;-75
2022/01/23 06:38:38;;;;;;;26.25;16.90;;;;;;;;;;5013084;28;96107;-73
2022/01/23 06:41:06;;;;;;;22.20;16.33;;;;;;;;;;5014949;28;92471;-73
2022/01/23 06:43:45;;;;;;;20.88;15.95;;;;;;;;;;5015038;28;95351;-73
2022/01/23 06:46:18;;;;;;;25.83;16.48;;;;;;;;;;5014505;28;95985;-72
2022/01/23 06:48:45;;;;;;;26.83;17.23;;;;;;;;;;5014360;28;92406;-73
2022/01/23 06:51:11;;;;;;;22.35;16.58;;;;;;;;;;5016034;28;93822;-74
2022/01/23 06:53:38;;;;;;;24.13;17.35;;;;;;;;;;5014715;28;95718;-73
2022/01/23 06:56:04;;;;;;;23.70;16.73;;;;;;;;;;5015172;28;93487;-73
2022/01/23 06:58:31;;;;;;;23.15;17.40;;;;;;;;;;5017759;28;94553;-73
2022/01/23 07:00:59;;;;;;;24.15;17.13;;;;;;;;;;5014157;28;92573;-73
2022/01/23 07:03:45;;;;;;;26.60;17.08;;;;;;;;;;5013218;28;95363;-73
2022/01/23 07:06:51;;;;;;;23.48;16.02;;;;;;;;;;4934733;28;92786;-72
2022/01/23 07:09:29;;;;;;;23.33;15.85;;;;;;;;;;4920601;28;92408;-73
2022/01/23 07:12:10;;;;;;;;;;;;;;;;;;4969552;28;96393;-73
2022/01/23 07:14:57;;;;;;;20.42;15.20;;;;;;;;;;5019617;28;92218;-72
2022/01/23 07:17:42;;;;;;;20.00;14.98;;;;;;;;;;5017647;28;92649;-73
2022/01/23 07:20:37;;;;;;;22.15;15.77;;;;;;;;;;5015434;28;93699;-71
2022/01/23 07:23:09;;;;;;;23.20;15.27;;;;;;;;;;5021314;28;94561;-72
2022/01/23 07:25:41;;;;;;;23.42;17.15;;;;;;;;;;5018027;28;94471;-71
2022/01/23 07:28:13;;;;;;;28.73;18.33;;;;;;;;;;5018390;28;93713;-72
2022/01/23 07:33:10;;;;;;;32.13;17.33;;;;;;;;;;5017674;28;97780;-73
2022/01/23 07:35:37;;;;;;;21.25;16.08;;;;;;;;;;5017569;28;95851;-72
2022/01/23 07:38:04;;;;;;;23.25;15.43;;;;;;;;;;5017756;28;93335;-71
2022/01/23 07:40:49;;;;;;;21.30;14.63;;;;;;;;;;5016452;28;92434;-72
2022/01/23 07:43:27;;;;;;;21.38;14.05;;;;;;;;;;5017184;28;96205;-72
2022/01/23 07:46:23;;;;;;;20.98;14.25;;;;;;;;;;5021271;28;92185;-73
2022/01/23 07:49:10;;;;;;;20.40;14.77;;;;;;;;;;5024583;28;93688;-72
2022/01/23 07:51:54;;;;;;;21.20;14.15;;;;;;;;;;5037018;28;92406;-71
2022/01/23 07:54:37;;;;;;;25.25;15.00;;;;;;;;;;5020853;28;96485;-71
2022/01/23 07:57:22;;;;;;;22.50;14.85;;;;;;;;;;5034234;28;95005;-73
2022/01/23 07:59:56;;;;;;;24.10;16.20;;;;;;;;;;5020622;28;93496;-71
2022/01/23 08:02:41;;;;;;;25.35;15.85;;;;;;;;;;5037446;28;93160;-72
2022/01/23 08:05:39;;;;;;;25.25;16.83;;;;;;;;;;5020048;28;95397;-73
2022/01/23 08:08:17;;;;;;;25.42;16.52;;;;;;;;;;5023390;28;92494;-73
2022/01/23 08:10:53;;;;;;;26.20;15.93;;;;;;;;;;5020406;28;94592;-71
2022/01/23 08:13:20;;;;;;;24.67;15.73;;;;;;;;;;5038399;28;92256;-71
2022/01/23 08:15:46;;;;;;;27.92;17.30;;;;;;;;;;5038785;28;93422;-70
2022/01/23 08:18:15;;;;;;;25.55;16.55;;;;;;;;;;5038024;28;94032;-69
2022/01/23 08:20:42;;;;;;;22.92;16.45;;;;;;;;;;5038361;27;92286;-69
2022/01/23 08:23:08;;;;;;;24.73;16.88;;;;;;;;;;5036870;28;94747;-70
2022/01/23 08:25:35;;;;;;;33.40;18.92;;;;;;;;;;5038139;28;93704;-70
2022/01/23 08:28:01;;;;;;;29.92;19.02;;;;;;;;;;5037520;28;92254;-71
2022/01/23 08:30:28;;;;;;;27.13;18.17;;;;;;;;;;5040640;28;92796;-70
2022/01/23 08:32:54;;;;;;;27.45;18.58;;;;;;;;;;5038130;28;92328;-69
2022/01/23 08:35:21;;;;;;;25.17;17.83;;;;;;;;;;5037934;28;93686;-70
2022/01/23 08:37:47;;;;;;;26.33;16.98;;;;;;;;;;5038257;28;92356;-70
2022/01/23 08:41:49;;;;;;;22.13;15.93;;;;;;;;;;5038650;28;91457;-70
2022/01/23 08:43:03;;;;;;;27.58;16.35;;;;;;;;;;5023828;28;92393;-71
2022/01/23 08:45:30;;;;;;;25.85;16.15;;;;;;;;;;5027889;28;93425;-71
2022/01/23 08:47:56;;;;;;;22.30;16.23;;;;;;;;;;5006474;28;94829;-71
2022/01/23 08:50:22;;;;;;;21.17;15.35;;;;;;;;;;5027343;28;95401;-72
2022/01/23 08:52:49;;;;;;;20.50;15.50;;;;;;;;;;5030688;28;93774;-71
2022/01/23 08:55:15;;;;;;;24.38;15.77;;;;;;;;;;5026090;28;92918;-72
2022/01/23 08:57:41;;;;;;;25.13;15.95;;;;;;;;;;5009642;28;92437;-73
2022/01/23 09:00:25;;;;;;;18.00;14.55;;;;;;;;;;5028333;28;92238;-71
2022/01/23 09:02:51;;;;;;;22.85;14.88;;;;;;;;;;5027939;28;92471;-73
2022/01/23 09:05:18;;;;;;;26.60;15.82;;;;;;;;;;5026404;28;92851;-73
2022/01/23 09:07:44;;;;;;;21.67;15.77;;;;;;;;;;5027112;28;92358;-70
2022/01/23 09:10:11;;;;;;;25.20;15.68;;;;;;;;;;5024897;28;93563;-71
2022/01/23 09:15:04;;;;;;;24.83;16.73;;;;;;;;;;5029974;28;92381;-72
2022/01/23 09:17:31;;;;;;;21.10;16.38;;;;;;;;;;5026083;28;92247;-71
2022/01/23 09:19:57;;;;;;;23.05;16.70;;;;;;;;;;5027573;28;92316;-71
2022/01/23 09:22:27;;;;;;;24.95;16.58;;;;;;;;;;5026435;28;93848;-72
2022/01/23 09:24:54;;;;;;;26.85;16.95;;;;;;;;;;5036964;28;93264;-72
2022/01/23 09:27:21;;;;;;;25.60;16.42;;;;;;;;;;5037538;28;92750;-72
2022/01/23 09:29:50;;;;;;;21.77;16.83;;;;;;;;;;5037765;28;93535;-71
2022/01/23 09:32:18;;;;;;;23.77;16.83;;;;;;;;;;5036579;27;93345;-72
2022/01/23 09:34:44;;;;;;;20.67;14.95;;;;;;;;;;5015455;28;92430;-71
2022/01/23 09:37:12;;;;;;;22.00;15.70;;;;;;;;;;5038155;28;94616;-71
2022/01/23 09:39:40;;;;;;;22.98;15.57;;;;;;;;;;5037165;28;92147;-72
2022/01/23 09:42:13;;;;;;;23.75;16.27;;;;;;;;;;5036946;28;93540;-71
2022/01/23 09:44:41;;;;;;;22.98;15.07;;;;;;;;;;5037080;28;93239;-71
2022/01/23 09:47:09;;;;;;;22.90;16.75;;;;;;;;;;5036995;28;92187;-70
2022/01/23 09:49:36;;;;;;;24.40;16.48;;;;;;;;;;5036602;28;93154;-72
2022/01/23 09:52:03;;;;;;;24.65;16.27;;;;;;;;;;5036798;28;93501;-72
2022/01/23 09:54:30;;;;;;;22.40;15.48;;;;;;;;;;5037696;28;91493;-72
2022/01/23 09:56:59;;;;;;;19.40;15.40;;;;;;;;;;5018988;28;92723;-71
2022/01/23 09:59:26;;;;;;;22.95;15.65;;;;;;;;;;5039619;28;93405;-71
2022/01/23 10:01:56;;;;;;;21.67;14.80;;;;;;;;;;5035355;28;94742;-74
2022/01/23 10:04:23;;;;;;;22.40;14.23;;;;;;;;;;5036194;28;92980;-72
2022/01/23 10:06:49;;;;;;;19.17;14.18;;;;;;;;;;5036875;28;92271;-72
2022/01/23 10:09:16;;;;;;;18.88;14.38;;;;;;;;;;5036710;28;93599;-72
2022/01/23 10:11:44;;;;;;;21.05;15.13;;;;;;;;;;5036402;28;93685;-71
2022/01/23 10:14:10;;;;;;;21.35;15.55;;;;;;;;;;5036569;28;92313;-73
2022/01/23 10:16:37;;;;;;;22.27;15.93;;;;;;;;;;5036584;28;93716;-72
2022/01/23 10:19:04;;;;;;;20.98;15.35;;;;;;;;;;5039634;28;92783;-72
2022/01/23 10:21:33;;;;;;;19.45;14.40;;;;;;;;;;5036684;28;92806;-72
2022/01/23 10:24:00;;;;;;;21.92;14.63;;;;;;;;;;5036355;28;93099;-74
2022/01/23 10:26:48;;;;;;;19.88;14.32;;;;;;;;;;5034716;28;94662;-72
2022/01/23 10:29:18;;;;;;;17.80;13.18;;;;;;;;;;5035873;28;95903;-71
2022/01/23 10:32:04;;;;;;;17.98;13.43;;;;;;;;;;5036227;28;93646;-71
2022/01/23 10:34:39;;;;;;;15.27;12.27;;;;;;;;;;5036305;28;92382;-71
2022/01/23 10:37:05;;;;;;;15.30;12.00;;;;;;;;;;5036343;28;93540;-71
2022/01/23 10:39:42;;;;;;;15.15;11.43;;;;;;;;;;5036146;28;93678;-73
2022/01/23 10:47:58;;;;;;;15.25;11.45;;;;;;;;;;5039754;28;92305;-71
2022/01/23 10:50:25;;;;;;;18.70;11.70;;;;;;;;;;5021904;28;93568;-71
2022/01/23 10:52:53;;;;;;;11.80;10.45;;;;;;;;;;5037859;28;95657;-72
2022/01/23 10:55:19;;;;;;;15.13;10.32;;;;;;;;;;5039574;28;92464;-70
2022/01/23 10:57:50;;;;;;;11.52;9.23;;;;;;;;;;5039748;28;93480;-71
2022/01/23 11:00:43;;;;;;;11.05;9.70;;;;;;;;;;5040081;28;94107;-71
2022/01/23 11:03:12;;;;;;;12.02;10.23;;;;;;;;;;5035622;28;92369;-73
2022/01/23 11:05:39;;;;;;;11.52;10.02;;;;;;;;;;5040389;28;92883;-72
2022/01/23 11:08:25;;;;;;;11.07;9.90;;;;;;;;;;5029729;28;92482;-71
2022/01/23 11:10:58;;;;;;;9.98;8.98;;;;;;;;;;5022029;28;92424;-72
2022/01/23 11:19:18;;;;;;;11.93;9.60;;;;;;;;;;5018465;28;94632;-73
2022/01/23 11:21:44;;;;;;;17.20;13.43;;;;;;;;;;5019465;28;93869;-72
2022/01/23 11:24:18;;;;;;;26.70;17.27;;;;;;;;;;5019028;28;92227;-71
2022/01/23 11:26:45;;;;;;;12.38;10.35;;;;;;;;;;5019155;28;93815;-72
2022/01/23 11:29:13;;;;;;;13.43;9.65;;;;;;;;;;5021920;28;93201;-73
2022/01/23 11:31:40;;;;;;;16.25;10.38;;;;;;;;;;5019891;28;92914;-73
2022/01/23 11:34:07;;;;;;;16.70;12.32;;;;;;;;;;5018355;28;93644;-71
2022/01/23 11:36:34;;;;;;;14.23;11.15;;;;;;;;;;5019397;28;91628;-73
2022/01/23 11:39:13;;;;;;;10.98;8.98;;;;;;;;;;5001531;28;93006;-71
2022/01/23 11:53:45;;;;;;;11.80;9.43;;;;;;;;;;4923246;28;94402;-76
2022/01/23 11:56:24;;;;;;;14.65;10.45;;;;;;;;;;5019040;28;93542;-71
2022/01/23 11:59:12;;;;;;;21.30;15.98;;;;;;;;;;5018619;28;92213;-72
2022/01/23 12:01:40;;;;;;;19.45;14.70;;;;;;;;;;5018631;28;93556;-72
2022/01/23 12:04:06;;;;;;;12.65;9.77;;;;;;;;;;5018987;28;93224;-72
2022/01/23 12:06:37;;;;;;;10.45;9.32;;;;;;;;;;5019085;28;92441;-72
2022/01/23 12:09:09;;;;;;;10.60;9.00;;;;;;;;;;5019262;28;93483;-73
2022/01/23 12:11:47;;;;;;;12.77;8.93;;;;;;;;;;5016648;28;95923;-72
2022/01/23 12:17:00;;;;;;;10.90;9.15;;;;;;;;;;5021989;28;93771;-74
2022/01/23 12:19:28;;;;;;;12.27;8.63;;;;;;;;;;5026198;28;92359;-72
2022/01/23 12:21:56;;;;;;;11.38;10.07;;;;;;;;;;5027134;28;93363;-73
2022/01/23 12:24:23;;;;;;;13.25;10.20;;;;;;;;;;5027785;28;92482;-75
2022/01/23 12:26:52;;;;;;;12.00;9.70;;;;;;;;;;5028943;28;92427;-74
2022/01/23 12:29:18;;;;;;;13.88;9.68;;;;;;;;;;5029902;28;93397;-73
2022/01/23 12:32:18;;;;;;;13.93;9.93;;;;;;;;;;5029311;28;93501;-72
2022/01/23 12:34:49;;;;;;;12.35;9.82;;;;;;;;;;5027355;28;92376;-72
2022/01/23 12:37:16;;;;;;;15.57;10.40;;;;;;;;;;5011747;28;94880;-72
2022/01/23 12:39:43;;;;;;;12.95;10.35;;;;;;;;;;5028877;28;92344;-72
2022/01/23 12:42:10;;;;;;;12.80;10.90;;;;;;;;;;5023072;28;93413;-74
2022/01/23 12:44:38;;;;;;;11.68;10.25;;;;;;;;;;5006226;28;93484;-72
2022/01/23 12:47:05;;;;;;;11.25;9.93;;;;;;;;;;5010288;28;92431;-71
2022/01/23 12:49:37;;;;;;;13.82;9.65;;;;;;;;;;5027373;28;93399;-71
2022/01/23 12:52:09;;;;;;;12.95;10.50;;;;;;;;;;5008964;28;94612;-74
2022/01/23 12:54:50;;;;;;;16.80;12.18;;;;;;;;;;5031175;28;91644;-72
2022/01/23 12:57:18;;;;;;;14.65;11.73;;;;;;;;;;5029077;28;92771;-70
2022/01/23 12:59:51;;;;;;;15.10;11.85;;;;;;;;;;5030940;28;93532;-71
2022/01/23 13:02:19;;;;;;;13.73;9.70;;;;;;;;;;5016125;28;94868;-70
2022/01/23 13:04:50;;;;;;;10.48;9.00;;;;;;;;;;5018161;28;93144;-71
2022/01/23 13:07:24;;;;;;;13.57;10.88;;;;;;;;;;5017661;28;92330;-71
2022/01/23 13:10:02;;;;;;;11.85;9.55;;;;;;;;;;5017390;28;93620;-72
2022/01/23 13:29:52;;;;;;;10.90;9.80;;;;;;;;;;5036072;28;94700;-71
2022/01/23 13:31:50;;;;;;;13.48;9.15;;;;;;;;;;5028380;28;95994;-70
2022/01/23 13:34:36;;;;;;;13.98;9.63;;;;;;;;;;5027983;28;93546;-71
2022/01/23 13:37:10;;;;;;;14.93;9.85;;;;;;;;;;5026211;28;93007;-71
2022/01/23 13:39:50;;;;;;;13.68;10.93;;;;;;;;;;5026172;28;92942;-70
2022/01/23 13:53:37;;;;;;;14.82;10.15;;;;;;;;;;5037018;28;93157;-70
2022/01/23 14:04:22;;;;;;;14.15;11.10;;;;;;;;;;5037059;28;93525;-71
2022/01/23 14:06:48;;;;;;;12.45;10.35;;;;;;;;;;5036568;28;92296;-73
2022/01/23 14:09:16;;;;;;;11.05;9.77;;;;;;;;;;5036800;28;92819;-71
2022/01/23 14:11:43;;;;;;;12.30;9.90;;;;;;;;;;5040128;28;93094;-71
2022/01/23 14:14:15;;;;;;;21.67;16.63;;;;;;;;;;5037637;28;93472;-70
2022/01/23 14:16:42;;;;;;;19.45;14.90;;;;;;;;;;5036080;28;93749;-71
2022/01/23 14:19:15;;;;;;;18.70;13.85;;;;;;;;;;5018475;28;92297;-71
2022/01/23 14:21:49;;;;;;;17.48;13.55;;;;;;;;;;5034859;28;94741;-70
2022/01/23 14:24:19;;;;;;;11.07;9.82;;;;;;;;;;5036250;28;93545;-72
2022/01/23 14:26:56;;;;;;;11.40;9.98;;;;;;;;;;5037183;28;92258;-71
2022/01/23 14:29:24;;;;;;;13.30;10.32;;;;;;;;;;5035733;28;93626;-72
2022/01/23 14:32:05;;;;;;;11.68;10.25;;;;;;;;;;5036305;28;93681;-72
2022/01/23 14:34:32;;;;;;;13.38;11.25;;;;;;;;;;5039335;28;92234;-71
2022/01/23 14:37:01;;;;;;;13.43;11.27;;;;;;;;;;5036322;28;94239;-72
2022/01/23 14:39:27;;;;;;;15.10;12.40;;;;;;;;;;5036876;28;91576;-70
2022/01/23 14:41:55;;;;;;;13.43;10.32;;;;;;;;;;5035583;28;92380;-72
2022/01/23 14:44:23;;;;;;;15.63;10.75;;;;;;;;;;5036204;28;93544;-70
2022/01/23 14:46:51;;;;;;;12.00;10.07;;;;;;;;;;5034350;28;94690;-70
2022/01/23 14:49:23;;;;;;;16.63;12.10;;;;;;;;;;5035697;28;95990;-72
2022/01/23 14:51:50;;;;;;;13.15;10.00;;;;;;;;;;5036008;28;93664;-69
2022/01/23 14:54:17;;;;;;;13.27;9.50;;;;;;;;;;5038735;28;92276;-73
2022/01/23 14:56:43;;;;;;;12.05;10.18;;;;;;;;;;5036735;28;93348;-73
2022/01/23 14:59:10;;;;;;;12.85;10.57;;;;;;;;;;5029622;28;92515;-73
2022/01/23 15:01:37;;;;;;;13.50;10.43;;;;;;;;;;5024433;28;93509;-73
2022/01/23 15:04:06;;;;;;;14.65;11.27;;;;;;;;;;5026177;28;91462;-71
2022/01/23 15:06:33;;;;;;;14.48;10.75;;;;;;;;;;5028415;27;92643;-71
2022/01/23 15:09:06;;;;;;;17.42;10.52;;;;;;;;;;5019992;28;93480;-71
2022/01/23 15:11:33;;;;;;;12.40;9.65;;;;;;;;;;5016323;28;96230;-72
2022/01/23 15:13:59;;;;;;;12.82;10.27;;;;;;;;;;4998530;28;92524;-72
2022/01/23 15:16:27;;;;;;;19.60;10.88;;;;;;;;;;5018659;28;93584;-71
2022/01/23 15:18:53;;;;;;;11.98;9.38;;;;;;;;;;5015927;28;92328;-72
2022/01/23 15:21:20;;;;;;;12.57;9.93;;;;;;;;;;5016195;28;93318;-72
2022/01/23 15:23:46;;;;;;;15.45;10.27;;;;;;;;;;5016096;28;94059;-72
2022/01/23 15:26:14;;;;;;;18.27;10.80;;;;;;;;;;5015550;28;92194;-71
2022/01/23 15:28:40;;;;;;;13.82;11.00;;;;;;;;;;5016310;28;93446;-71
2022/01/23 15:31:07;;;;;;;13.38;10.95;;;;;;;;;;5018201;28;93633;-71
2022/01/23 15:33:33;;;;;;;14.82;11.00;;;;;;;;;;5018956;28;92358;-75
2022/01/23 15:35:59;;;;;;;14.57;10.73;;;;;;;;;;5016976;28;94730;-71
2022/01/23 15:38:29;;;;;;;18.08;10.68;;;;;;;;;;5021889;28;93585;-70
2022/01/23 15:40:55;;;;;;;16.77;11.82;;;;;;;;;;5018938;28;93371;-70
2022/01/23 15:43:22;;;;;;;15.70;11.48;;;;;;;;;;5018829;28;94114;-70
2022/01/23 15:45:50;;;;;;;15.38;11.85;;;;;;;;;;5018811;28;92408;-71
2022/01/23 15:48:16;;;;;;;14.70;11.57;;;;;;;;;;5018747;28;93426;-71
2022/01/23 15:50:42;;;;;;;15.85;11.85;;;;;;;;;;5017980;28;93565;-71
2022/01/23 15:53:09;;;;;;;13.95;11.27;;;;;;;;;;5019143;28;91509;-71
2022/01/23 15:55:35;;;;;;;16.73;11.20;;;;;;;;;;5018667;28;92641;-71
2022/01/23 15:58:02;;;;;;;14.85;11.75;;;;;;;;;;5000160;28;93980;-71
2022/01/23 16:00:29;;;;;;;14.48;10.70;;;;;;;;;;5019217;28;94759;-70
2022/01/23 16:02:55;;;;;;;17.05;11.32;;;;;;;;;;5018395;28;93882;-70
2022/01/23 16:05:22;;;;;;;15.18;11.68;;;;;;;;;;5018483;28;92281;-71
2022/01/23 16:07:48;;;;;;;14.57;11.55;;;;;;;;;;5017956;28;93485;-71
2022/01/23 16:10:14;;;;;;;16.50;11.52;;;;;;;;;;5018283;28;93719;-71
2022/01/23 16:12:42;;;;;;;16.70;11.48;;;;;;;;;;5018560;28;92376;-72
2022/01/23 16:15:09;;;;;;;16.85;12.00;;;;;;;;;;5018392;28;93060;-70
2022/01/23 16:17:36;;;;;;;17.23;12.45;;;;;;;;;;5018626;28;92704;-71
2022/01/23 16:20:07;;;;;;;19.10;12.77;;;;;;;;;;5018138;28;92206;-71
2022/01/23 16:22:33;;;;;;;17.38;12.75;;;;;;;;;;5020579;28;93652;-71
2022/01/23 16:25:00;;;;;;;17.67;13.50;;;;;;;;;;5016583;28;94680;-71
2022/01/23 16:27:26;;;;;;;17.65;13.32;;;;;;;;;;5018078;28;95750;-71
2022/01/23 16:30:13;;;;;;;15.50;12.35;;;;;;;;;;5018027;28;93633;-72
2022/01/23 16:32:40;;;;;;;18.33;12.95;;;;;;;;;;5018029;28;92344;-73
2022/01/23 16:35:06;;;;;;;19.70;15.52;;;;;;;;;;5017789;28;93473;-71
2022/01/23 16:37:33;;;;;;;25.88;16.20;;;;;;;;;;5018123;28;93561;-70
2022/01/23 16:39:59;;;;;;;21.95;16.00;;;;;;;;;;5018046;28;92326;-70
2022/01/23 16:42:25;;;;;;;22.70;16.50;;;;;;;;;;5020127;28;93390;-71
2022/01/23 16:44:52;;;;;;;22.38;16.60;;;;;;;;;;5017399;28;92423;-73
2022/01/23 16:47:19;;;;;;;22.40;15.60;;;;;;;;;;5017307;28;93528;-73
2022/01/23 16:49:45;;;;;;;25.17;16.45;;;;;;;;;;5015429;28;94941;-70
2022/01/23 16:52:12;;;;;;;20.50;16.38;;;;;;;;;;4999984;28;93190;-71
2022/01/23 16:54:39;;;;;;;21.88;15.68;;;;;;;;;;5017763;28;93689;-72
2022/01/23 16:57:18;;;;;;;24.63;17.55;;;;;;;;;;5017551;28;93360;-71
2022/01/23 16:59:45;;;;;;;27.92;17.50;;;;;;;;;;5016229;28;92681;-72
2022/01/23 17:02:11;;;;;;;28.48;18.27;;;;;;;;;;5017438;28;93885;-72
2022/01/23 17:04:41;;;;;;;24.23;17.77;;;;;;;;;;5020508;28;93598;-72
2022/01/23 17:07:07;;;;;;;25.13;17.15;;;;;;;;;;5017814;28;92801;-74
2022/01/23 17:09:33;;;;;;;25.17;16.58;;;;;;;;;;5017204;28;93627;-74
2022/01/23 17:12:04;;;;;;;22.45;16.92;;;;;;;;;;5016786;28;92353;-71
2022/01/23 17:14:30;;;;;;;26.02;16.83;;;;;;;;;;5016043;28;94773;-71
2022/01/23 17:16:57;;;;;;;20.30;16.15;;;;;;;;;;5016881;28;93745;-71
2022/01/23 17:19:23;;;;;;;20.85;14.43;;;;;;;;;;5017630;28;92139;-71
2022/01/23 17:21:50;;;;;;;19.90;14.18;;;;;;;;;;5017288;28;93070;-71
2022/01/23 17:24:16;;;;;;;19.95;14.80;;;;;;;;;;5016898;28;93552;-71
2022/01/23 17:26:43;;;;;;;22.63;15.05;;;;;;;;;;5020007;28;92425;-71
2022/01/23 17:29:09;;;;;;;21.63;14.40;;;;;;;;;;5017427;28;93247;-71
2022/01/23 17:31:36;;;;;;;19.42;14.18;;;;;;;;;;5017643;28;91690;-70
2022/01/23 17:34:02;;;;;;;21.45;12.77;;;;;;;;;;5017230;28;92567;-71
2022/01/23 17:36:28;;;;;;;19.23;13.55;;;;;;;;;;5016916;28;93696;-71
2022/01/23 17:38:55;;;;;;;21.05;14.32;;;;;;;;;;5015376;28;94722;-73
2022/01/23 17:41:21;;;;;;;19.85;13.63;;;;;;;;;;5016381;28;96140;-71
2022/01/23 17:43:48;;;;;;;20.35;13.43;;;;;;;;;;4998801;28;94325;-70
2022/01/23 17:46:22;;;;;;;23.55;14.77;;;;;;;;;;5016746;28;92376;-72
2022/01/23 17:49:02;;;;;;;21.65;14.35;;;;;;;;;;5019128;28;94392;-72
2022/01/23 17:51:29;;;;;;;25.50;14.85;;;;;;;;;;5016765;28;92301;-72
2022/01/23 17:54:00;;;;;;;21.27;14.35;;;;;;;;;;5015747;28;92436;-72
2022/01/23 17:56:27;;;;;;;22.75;15.00;;;;;;;;;;5024781;27;92398;-71
2022/01/23 17:58:53;;;;;;;21.30;14.80;;;;;;;;;;5036675;28;92253;-72
2022/01/23 18:01:20;;;;;;;23.17;15.00;;;;;;;;;;5037012;27;93369;-72
2022/01/23 18:03:46;;;;;;;27.35;14.70;;;;;;;;;;5055290;27;95516;-72
2022/01/23 18:06:23;;;;;;;23.65;15.95;;;;;;;;;;5056168;27;92379;-73
2022/01/23 18:08:55;;;;;;;23.48;15.40;;;;;;;;;;5057141;27;93391;-72
2022/01/23 18:11:22;;;;;;;21.63;14.98;;;;;;;;;;5060076;27;93600;-72